Terminal Aerodrome Forecast
Issued by NWS

Home | Current Version | Previous Version | Text Only | Print | Product List | Glossary On
Versions: 1 2 3 4 5 6 7 8 9 10 11 12 13 14 15 16 17
000
FTUS45 KCYS 222320
TAFRWL
TAF
KRWL 222320Z 2300/2324 20015G22KT P6SM SCT050 BKN120
     FM230200 16008KT P6SM FEW060 BKN120
     FM231400 23015G25KT P6SM VCSH SCT040 BKN080=

USA.gov is the U.S. government's official web portal to all federal, state and local government web resources and services.